Time;durP1;ratioP1;P1;durP2;ratioP2;P2;SDS_P1;SDS_P2;PMS_P1;PMS_P2;Temp;Humidity;BMP_temperature;BMP_pressure;BME280_temperature;BME280_humidity;BME280_pressure;Samples;Min_cycle;Max_cycle;Signal;HPM_P1;HPM_P2
2021/03/03 00:02:16;;;;;;;8.33;4.10;;;4.00;56.00;;;;;;4375154;32;20161;-36
2021/03/03 00:04:42;;;;;;;11.47;6.13;;;4.00;56.00;;;;;;4375001;32;20066;-36
2021/03/03 00:07:09;;;;;;;9.30;4.43;;;4.00;56.10;;;;;;4374874;32;20058;-36
2021/03/03 00:09:35;;;;;;;10.10;5.53;;;4.00;56.10;;;;;;4374808;32;20055;-41
2021/03/03 00:12:02;;;;;;;8.37;4.20;;;4.00;56.10;;;;;;4374777;32;20147;-36
2021/03/03 00:14:28;;;;;;;8.27;3.57;;;4.00;56.10;;;;;;4374598;32;20057;-35
2021/03/03 00:16:54;;;;;;;10.47;4.30;;;4.00;56.10;;;;;;4375123;32;20061;-35
2021/03/03 00:19:21;;;;;;;9.00;3.60;;;4.00;56.20;;;;;;4373219;32;20064;-37
2021/03/03 00:21:47;;;;;;;4.90;2.73;;;4.00;56.20;;;;;;4374765;32;20085;-36
2021/03/03 00:24:14;;;;;;;6.60;3.37;;;4.00;56.10;;;;;;4372708;32;20074;-36
2021/03/03 00:26:40;;;;;;;7.93;3.77;;;4.10;56.30;;;;;;4367026;32;20061;-35
2021/03/03 00:29:06;;;;;;;7.40;3.47;;;4.10;56.30;;;;;;4359695;32;20074;-41
2021/03/03 00:31:33;;;;;;;6.57;3.87;;;4.10;56.10;;;;;;4360093;32;20527;-35
2021/03/03 00:33:59;;;;;;;8.23;3.97;;;4.20;56.00;;;;;;4359336;32;20548;-38
2021/03/03 00:36:26;;;;;;;10.07;4.43;;;4.20;55.90;;;;;;4359746;32;20050;-34
2021/03/03 00:38:52;;;;;;;6.90;3.37;;;4.20;55.70;;;;;;4359716;32;20090;-38
2021/03/03 00:41:18;;;;;;;9.67;5.30;;;4.20;55.60;;;;;;4359333;32;20073;-36
2021/03/03 00:43:45;;;;;;;8.17;4.30;;;4.20;55.60;;;;;;4359349;32;20467;-35
2021/03/03 00:46:11;;;;;;;10.77;5.63;;;4.20;55.60;;;;;;4359657;32;20518;-35
2021/03/03 00:48:38;;;;;;;7.47;3.70;;;4.20;55.50;;;;;;4359371;32;20082;-38
2021/03/03 00:51:05;;;;;;;6.87;4.27;;;4.10;55.50;;;;;;4357984;32;20066;-34
2021/03/03 00:53:31;;;;;;;6.40;4.50;;;4.10;55.60;;;;;;4359311;32;20075;-36
2021/03/03 00:55:58;;;;;;;6.80;4.13;;;4.10;55.70;;;;;;4359096;32;20081;-37
2021/03/03 00:58:24;;;;;;;11.23;5.20;;;4.00;55.70;;;;;;4358070;32;20174;-34
2021/03/03 01:00:51;;;;;;;9.87;5.80;;;4.00;55.80;;;;;;4359063;32;20125;-38
2021/03/03 01:03:17;;;;;;;8.43;5.00;;;4.00;56.50;;;;;;4359578;32;20082;-37
2021/03/03 01:05:43;;;;;;;5.50;3.03;;;3.90;55.80;;;;;;4359126;32;20067;-39
2021/03/03 01:08:10;;;;;;;13.37;6.00;;;3.90;55.80;;;;;;4345433;32;20069;-37
2021/03/03 01:10:37;;;;;;;8.67;4.83;;;3.90;55.90;;;;;;4359429;32;20069;-34
2021/03/03 01:13:04;;;;;;;10.70;4.07;;;3.90;55.90;;;;;;4358982;32;20078;-38
2021/03/03 01:15:30;;;;;;;9.40;5.13;;;3.90;55.90;;;;;;4358851;32;20078;-39
2021/03/03 01:18:00;;;;;;;7.97;4.63;;;4.00;55.90;;;;;;4358799;32;20065;-38
2021/03/03 01:20:31;;;;;;;8.63;5.10;;;4.00;55.80;;;;;;4357207;32;20090;-36
2021/03/03 01:22:58;;;;;;;5.67;4.00;;;4.00;55.70;;;;;;4359391;32;20058;-37
2021/03/03 01:25:25;;;;;;;5.90;3.60;;;4.00;55.60;;;;;;4356788;32;20090;-36
2021/03/03 01:27:52;;;;;;;14.63;7.07;;;4.00;55.60;;;;;;4358936;32;20543;-35
2021/03/03 01:30:19;;;;;;;6.30;3.00;;;4.00;55.60;;;;;;4358680;32;20079;-36
2021/03/03 01:32:46;;;;;;;6.23;3.83;;;4.00;55.50;;;;;;4358854;32;20070;-35
2021/03/03 01:35:13;;;;;;;8.73;5.80;;;4.10;55.60;;;;;;4358547;32;20066;-36
2021/03/03 01:37:40;;;;;;;6.47;2.63;;;4.10;55.60;;;;;;4358911;32;20166;-40
2021/03/03 01:40:07;;;;;;;8.13;3.93;;;4.10;55.60;;;;;;4358835;32;20068;-37
2021/03/03 01:42:34;;;;;;;4.87;3.17;;;4.10;55.50;;;;;;4358736;32;20100;-37
2021/03/03 01:45:00;;;;;;;8.20;4.10;;;4.10;55.50;;;;;;4358799;32;20572;-41
2021/03/03 01:47:27;;;;;;;8.10;6.00;;;4.10;55.50;;;;;;4344807;32;20163;-40
2021/03/03 01:49:53;;;;;;;6.50;3.87;;;4.10;55.50;;;;;;4358561;32;20073;-37
2021/03/03 01:52:20;;;;;;;5.03;2.43;;;4.10;55.40;;;;;;4358298;32;20164;-35
2021/03/03 01:54:47;;;;;;;6.70;3.83;;;4.10;55.40;;;;;;4356987;32;20518;-36
2021/03/03 01:57:13;;;;;;;6.00;4.40;;;4.10;55.40;;;;;;4356937;32;20078;-35
2021/03/03 01:59:40;;;;;;;9.37;4.20;;;4.00;55.40;;;;;;4356650;32;20171;-37
2021/03/03 02:02:06;;;;;;;6.80;3.60;;;4.00;55.50;;;;;;4358049;32;20515;-37
2021/03/03 02:04:34;;;;;;;10.87;3.80;;;4.00;55.60;;;;;;4356891;32;20171;-36
2021/03/03 02:07:30;;;;;;;10.23;3.53;;;3.90;55.60;;;;;;4356970;32;20066;-37
2021/03/03 02:10:17;;;;;;;7.83;4.40;;;3.90;55.60;;;;;;4347103;32;20092;-35
2021/03/03 02:13:09;;;;;;;8.30;3.83;;;3.90;55.60;;;;;;4344903;32;20291;-37
2021/03/03 02:15:37;;;;;;;6.53;2.87;;;3.90;55.50;;;;;;4356456;32;20173;-36
2021/03/03 02:18:04;;;;;;;9.43;4.10;;;3.90;55.40;;;;;;4356626;32;20106;-38
2021/03/03 02:20:41;;;;;;;5.43;3.13;;;3.90;55.40;;;;;;4344614;32;20079;-35
2021/03/03 02:23:33;;;;;;;6.00;2.67;;;3.90;55.40;;;;;;4345834;32;20447;-38
2021/03/03 02:25:59;;;;;;;4.37;2.70;;;3.90;55.30;;;;;;4356831;32;20270;-35
2021/03/03 02:28:26;;;;;;;7.43;3.90;;;4.00;55.20;;;;;;4356637;32;20070;-40
2021/03/03 02:30:52;;;;;;;5.43;3.50;;;4.00;55.80;;;;;;4344349;32;20076;-37
2021/03/03 02:33:22;;;;;;;6.50;3.73;;;4.00;55.00;;;;;;4344058;32;20058;-35
2021/03/03 02:35:49;;;;;;;8.77;6.37;;;4.00;54.90;;;;;;4343717;32;21206;-35
2021/03/03 02:38:15;;;;;;;8.20;5.07;;;4.00;54.70;;;;;;4358106;32;20206;-37
2021/03/03 02:40:43;;;;;;;9.13;5.43;;;4.00;54.60;;;;;;4358086;32;20535;-38
2021/03/03 02:43:27;;;;;;;7.20;5.03;;;4.00;54.50;;;;;;4344238;32;20058;-36
2021/03/03 02:45:54;;;;;;;4.73;3.43;;;3.90;54.50;;;;;;4332067;32;20065;-36
2021/03/03 02:48:20;;;;;;;8.10;2.43;;;3.90;54.30;;;;;;4344391;32;20077;-36
2021/03/03 02:50:46;;;;;;;10.63;4.10;;;3.90;54.10;;;;;;4356059;32;20073;-36
2021/03/03 02:53:13;;;;;;;6.40;3.40;;;3.80;54.10;;;;;;4356700;32;20112;-36
2021/03/03 02:55:39;;;;;;;5.47;2.50;;;3.80;54.10;;;;;;4356617;32;20062;-38
2021/03/03 02:58:06;;;;;;;7.20;3.03;;;3.70;54.20;;;;;;4358185;32;20066;-35
2021/03/03 03:00:38;;;;;;;8.37;5.00;;;3.70;54.20;;;;;;4357932;32;20078;-36
2021/03/03 03:03:24;;;;;;;15.07;9.87;;;3.70;54.30;;;;;;4358127;32;20086;-35
2021/03/03 03:06:16;;;;;;;8.70;4.47;;;3.60;54.40;;;;;;4356477;32;20570;-35
2021/03/03 03:08:42;;;;;;;5.97;3.67;;;3.60;54.40;;;;;;4356698;32;20189;-35
2021/03/03 03:11:09;;;;;;;7.40;4.07;;;3.70;54.50;;;;;;4356533;32;20082;-35
2021/03/03 03:13:36;;;;;;;8.57;5.97;;;3.60;55.10;;;;;;4344011;32;20105;-37
2021/03/03 03:16:03;;;;;;;8.93;4.47;;;3.60;54.40;;;;;;4332011;32;20507;-37
2021/03/03 03:18:35;;;;;;;6.23;4.40;;;3.60;54.50;;;;;;4357246;32;20098;-36
2021/03/03 03:21:03;;;;;;;6.03;3.93;;;3.60;54.60;;;;;;4344245;32;20082;-36
2021/03/03 03:23:30;;;;;;;7.63;3.80;;;3.70;54.70;;;;;;4356020;32;20239;-36
2021/03/03 03:25:56;;;;;;;8.37;4.17;;;3.70;54.80;;;;;;4356434;32;20066;-36
2021/03/03 03:28:23;;;;;;;14.40;6.63;;;3.70;54.90;;;;;;4343845;32;20522;-37
2021/03/03 03:30:50;;;;;;;12.63;5.07;;;3.70;55.00;;;;;;4331804;32;20175;-35
2021/03/03 03:33:18;;;;;;;10.67;5.10;;;3.80;55.10;;;;;;4356134;32;20077;-41
2021/03/03 03:35:44;;;;;;;11.93;5.83;;;3.80;55.00;;;;;;4356377;32;20487;-37
2021/03/03 03:38:11;;;;;;;8.87;5.17;;;3.90;54.90;;;;;;4344025;32;20138;-36
2021/03/03 03:40:37;;;;;;;6.33;3.10;;;3.90;54.80;;;;;;4356031;32;20143;-36
2021/03/03 03:43:05;;;;;;;11.53;5.60;;;3.90;54.70;;;;;;4343987;32;20066;-35
2021/03/03 03:45:31;;;;;;;9.17;4.47;;;3.90;54.80;;;;;;4355911;32;20456;-36
2021/03/03 03:47:58;;;;;;;12.83;6.30;;;3.90;54.70;;;;;;4344847;32;20087;-35
2021/03/03 03:50:26;;;;;;;5.97;3.10;;;4.00;54.80;;;;;;4358695;32;20089;-36
2021/03/03 03:52:56;;;;;;;7.27;3.50;;;4.00;54.70;;;;;;4358854;32;20054;-36
2021/03/03 03:55:33;;;;;;;7.37;3.33;;;4.10;54.80;;;;;;4360138;32;20071;-38
2021/03/03 03:58:00;;;;;;;6.47;3.23;;;4.10;54.80;;;;;;4358672;32;20051;-39
2021/03/03 04:00:27;;;;;;;3.97;2.53;;;4.10;54.70;;;;;;4360012;32;20063;-37
2021/03/03 04:02:54;;;;;;;3.43;2.33;;;4.10;54.70;;;;;;4360272;32;20124;-35
2021/03/03 04:05:21;;;;;;;4.37;2.67;;;4.10;54.70;;;;;;4360122;32;20140;-37
2021/03/03 04:07:47;;;;;;;10.17;4.40;;;4.10;54.80;;;;;;4358453;32;20066;-36
2021/03/03 04:10:24;;;;;;;8.57;3.20;;;4.10;54.80;;;;;;4346093;32;20554;-39
2021/03/03 04:12:51;;;;;;;6.00;3.10;;;4.20;54.90;;;;;;4360075;32;20097;-37
2021/03/03 04:15:18;;;;;;;7.40;3.17;;;4.20;54.90;;;;;;4360103;32;20086;-39
2021/03/03 04:17:44;;;;;;;7.37;3.40;;;4.30;55.00;;;;;;4358622;32;20074;-36
2021/03/03 04:20:11;;;;;;;8.70;3.60;;;4.30;55.00;;;;;;4359781;32;20097;-36
2021/03/03 04:22:38;;;;;;;4.40;2.37;;;4.30;55.00;;;;;;4360065;32;20078;-36
2021/03/03 04:25:07;;;;;;;7.40;3.03;;;4.40;55.00;;;;;;4359820;32;20085;-36
2021/03/03 04:27:34;;;;;;;7.43;3.20;;;4.40;55.20;;;;;;4372523;32;20066;-36
2021/03/03 04:30:02;;;;;;;9.43;4.27;;;4.50;55.20;;;;;;4374542;32;20069;-36
2021/03/03 04:32:28;;;;;;;8.80;3.70;;;4.50;55.10;;;;;;4374800;32;20085;-36
2021/03/03 04:34:55;;;;;;;16.37;4.97;;;4.60;55.10;;;;;;4374362;32;20527;-36
2021/03/03 04:37:21;;;;;;;11.40;4.07;;;4.60;55.20;;;;;;4374684;32;20137;-38
2021/03/03 04:39:47;;;;;;;7.00;3.53;;;4.70;55.20;;;;;;4374623;32;20138;-35
2021/03/03 04:42:14;;;;;;;12.13;4.20;;;4.80;55.30;;;;;;4374455;32;20078;-36
2021/03/03 04:44:40;;;;;;;4.37;2.67;;;4.80;55.40;;;;;;4374433;32;20507;-35
2021/03/03 04:47:07;;;;;;;6.97;3.13;;;4.90;55.40;;;;;;4374250;32;20513;-37
2021/03/03 04:49:33;;;;;;;6.10;2.53;;;5.00;55.30;;;;;;4374857;32;20061;-39
2021/03/03 04:52:00;;;;;;;8.27;3.83;;;5.10;55.20;;;;;;4374610;32;20057;-36
2021/03/03 04:54:26;;;;;;;6.10;2.30;;;5.10;55.20;;;;;;4374401;32;20519;-35
2021/03/03 04:56:53;;;;;;;9.13;3.20;;;5.20;55.30;;;;;;4374210;32;20140;-38
2021/03/03 04:59:19;;;;;;;4.33;2.10;;;5.30;55.40;;;;;;4373249;32;20069;-40
2021/03/03 05:01:46;;;;;;;4.80;2.27;;;5.40;55.40;;;;;;4374162;32;20127;-40
2021/03/03 05:04:12;;;;;;;6.63;2.10;;;5.50;55.50;;;;;;4372809;32;20173;-38
2021/03/03 05:06:39;;;;;;;7.93;3.70;;;5.60;55.50;;;;;;4373665;32;20161;-40
2021/03/03 05:09:05;;;;;;;6.70;1.63;;;5.60;55.40;;;;;;4374188;32;20146;-36
2021/03/03 05:11:32;;;;;;;4.70;1.50;;;5.70;55.60;;;;;;4372722;32;20505;-36
2021/03/03 05:13:58;;;;;;;6.40;1.77;;;5.80;55.70;;;;;;4373782;32;20093;-37
2021/03/03 05:16:25;;;;;;;3.13;1.40;;;5.90;55.70;;;;;;4373960;32;20057;-36
2021/03/03 05:18:51;;;;;;;5.50;1.67;;;6.00;55.80;;;;;;4374034;32;20074;-39
2021/03/03 05:21:18;;;;;;;9.63;1.87;;;6.10;55.40;;;;;;4373931;32;20058;-37
2021/03/03 05:23:44;;;;;;;6.57;1.60;;;6.20;55.40;;;;;;4374122;32;20109;-38
2021/03/03 05:26:11;;;;;;;3.60;1.37;;;6.30;55.20;;;;;;4367386;32;20108;-36
2021/03/03 05:28:38;;;;;;;4.83;1.70;;;6.30;55.00;;;;;;4358985;32;20070;-37
2021/03/03 05:31:04;;;;;;;3.40;1.10;;;6.40;54.90;;;;;;4357219;32;20135;-37
2021/03/03 05:33:32;;;;;;;4.13;0.97;;;6.50;54.70;;;;;;4359043;32;20059;-39
2021/03/03 05:36:04;;;;;;;4.10;1.57;;;6.60;54.80;;;;;;4358884;32;20082;-38
2021/03/03 05:38:35;;;;;;;5.40;1.20;;;6.60;54.50;;;;;;4345801;32;20101;-41
2021/03/03 05:41:02;;;;;;;1.23;0.70;;;6.70;54.20;;;;;;4358970;32;20310;-38
2021/03/03 05:43:30;;;;;;;5.73;1.20;;;6.70;54.10;;;;;;4358682;32;20525;-40
2021/03/03 05:45:57;;;;;;;1.77;0.80;;;6.80;54.10;;;;;;4358680;32;20062;-39
2021/03/03 05:48:36;;;;;;;4.77;0.73;;;6.80;53.70;;;;;;4345096;32;20063;-39
2021/03/03 05:51:06;;;;;;;1.70;0.73;;;6.80;53.50;;;;;;4358199;32;20152;-35
2021/03/03 05:53:33;;;;;;;2.40;1.07;;;6.70;53.30;;;;;;4358253;32;20571;-36
2021/03/03 05:56:02;;;;;;;2.67;1.00;;;6.80;53.20;;;;;;4358076;32;20200;-37
2021/03/03 05:58:30;;;;;;;1.50;0.60;;;6.90;53.70;;;;;;4358308;32;20118;-42
2021/03/03 06:00:58;;;;;;;2.27;1.13;;;6.90;53.90;;;;;;4357909;32;20161;-38
2021/03/03 06:03:25;;;;;;;5.27;0.93;;;6.90;53.40;;;;;;4358358;32;20082;-37
2021/03/03 06:05:52;;;;;;;5.00;1.10;;;7.00;53.40;;;;;;4358641;32;20083;-40
2021/03/03 06:08:21;;;;;;;7.00;1.30;;;7.10;53.40;;;;;;4358093;32;20074;-38
2021/03/03 06:10:48;;;;;;;4.30;1.13;;;7.10;53.30;;;;;;4356145;32;20624;-34
2021/03/03 06:13:15;;;;;;;6.53;1.30;;;7.20;53.30;;;;;;4358309;32;20069;-38
2021/03/03 06:15:44;;;;;;;5.07;0.90;;;7.20;53.10;;;;;;4358277;32;20101;-37
2021/03/03 06:18:13;;;;;;;6.73;0.93;;;7.20;53.10;;;;;;4344532;32;20073;-35
2021/03/03 06:20:44;;;;;;;2.30;0.93;;;7.30;52.90;;;;;;4358026;32;20058;-34
2021/03/03 06:23:24;;;;;;;1.83;0.90;;;7.30;52.40;;;;;;4358253;32;20089;-35
2021/03/03 06:25:57;;;;;;;6.47;1.53;;;7.30;52.10;;;;;;4360438;32;20462;-35
2021/03/03 06:28:33;;;;;;;4.03;1.33;;;7.40;52.90;;;;;;4373193;32;20563;-36
2021/03/03 06:31:01;;;;;;;1.80;1.03;;;7.60;52.50;;;;;;4373116;32;20146;-41
2021/03/03 06:33:27;;;;;;;5.23;1.10;;;7.70;52.90;;;;;;4372791;32;20058;-40
2021/03/03 06:35:54;;;;;;;11.83;2.37;;;8.00;52.90;;;;;;4373260;32;20506;-42
2021/03/03 06:38:31;;;;;;;9.73;3.70;;;8.30;52.30;;;;;;4373121;32;20077;-37
2021/03/03 06:41:07;;;;;;;3.60;1.10;;;8.70;52.20;;;;;;4371655;32;20516;-44
2021/03/03 06:43:34;;;;;;;3.47;1.30;;;9.10;51.80;;;;;;4373070;32;20077;-37
2021/03/03 06:46:21;;;;;;;5.63;1.57;;;9.30;51.80;;;;;;4371449;32;20051;-38
2021/03/03 06:48:47;;;;;;;3.90;1.30;;;9.40;51.50;;;;;;4373105;32;20090;-37
2021/03/03 06:51:33;;;;;;;3.53;1.50;;;9.50;50.10;;;;;;4372752;32;20133;-36
2021/03/03 06:54:05;;;;;;;13.80;1.67;;;9.60;49.60;;;;;;4372850;32;20114;-41
2021/03/03 06:56:42;;;;;;;3.10;1.10;;;9.70;49.10;;;;;;4372873;32;20097;-39
2021/03/03 06:59:24;;;;;;;4.57;1.10;;;9.90;48.40;;;;;;4372857;32;20084;-39
2021/03/03 07:01:59;;;;;;;12.45;1.30;;;10.00;49.00;;;;;;4372790;32;20156;-41
2021/03/03 07:04:32;;;;;;;4.35;1.02;;;10.20;48.50;;;;;;4373306;32;20073;-42
2021/03/03 07:07:25;;;;;;;3.08;0.90;;;10.30;48.50;;;;;;4372859;32;20070;-39
2021/03/03 07:09:53;;;;;;;3.47;1.03;;;10.50;47.10;;;;;;4370406;32;20149;-40
2021/03/03 07:12:26;;;;;;;2.20;0.85;;;10.70;47.30;;;;;;4372860;32;20090;-38
2021/03/03 07:15:06;;;;;;;4.87;1.00;;;10.80;46.60;;;;;;4371451;32;20062;-38
2021/03/03 07:17:44;;;;;;;3.00;1.25;;;10.90;46.30;;;;;;4373046;32;20628;-41
2021/03/03 07:20:18;;;;;;;4.80;1.00;;;11.10;46.70;;;;;;4372716;32;20104;-44
2021/03/03 07:22:49;;;;;;;5.10;0.98;;;11.30;45.20;;;;;;4373140;32;20098;-42
2021/03/03 07:25:17;;;;;;;1.55;0.70;;;11.30;44.60;;;;;;4373844;32;20442;-41
2021/03/03 07:27:47;;;;;;;7.57;1.55;;;11.50;44.70;;;;;;4361117;32;20081;-38
2021/03/03 07:30:21;;;;;;;3.17;0.80;;;11.70;45.10;;;;;;4360508;32;20054;-43
2021/03/03 07:32:47;;;;;;;8.35;1.37;;;11.90;44.30;;;;;;4360451;32;20071;-39
2021/03/03 07:35:14;;;;;;;5.07;1.08;;;12.10;43.10;;;;;;4360262;32;20093;-39
2021/03/03 07:37:56;;;;;;;3.03;1.05;;;12.20;43.00;;;;;;4360310;32;20195;-40
2021/03/03 07:40:27;;;;;;;3.75;0.90;;;12.30;42.10;;;;;;4359289;32;20070;-37
2021/03/03 07:42:56;;;;;;;5.53;1.33;;;12.60;42.00;;;;;;4346735;32;20588;-39
2021/03/03 07:45:23;;;;;;;7.22;0.40;;;12.90;42.10;;;;;;4358706;32;20062;-39
2021/03/03 07:47:50;;;;;;;6.53;0.90;;;13.00;42.90;;;;;;4360306;32;20067;-38
2021/03/03 07:50:19;;;;;;;1.27;0.57;;;13.20;41.10;;;;;;4360515;32;20066;-36
2021/03/03 07:52:51;;;;;;;4.65;1.05;;;13.30;39.30;;;;;;4360040;32;20062;-38
2021/03/03 07:55:17;;;;;;;8.48;1.00;;;13.30;39.50;;;;;;4358906;32;20207;-42
2021/03/03 07:57:49;;;;;;;3.10;0.80;;;13.40;40.10;;;;;;4358038;32;20564;-42
2021/03/03 08:00:35;;;;;;;4.07;1.77;;;13.40;39.30;;;;;;4334621;32;20078;-44
2021/03/03 08:03:01;;;;;;;9.40;0.93;;;13.50;39.30;;;;;;4336637;32;20549;-44
2021/03/03 08:05:38;;;;;;;3.10;0.77;;;13.50;39.10;;;;;;4359845;32;20062;-42
2021/03/03 08:08:23;;;;;;;4.60;1.00;;;13.50;38.90;;;;;;4360067;32;20055;-42
2021/03/03 08:10:52;;;;;;;3.30;0.85;;;13.50;37.30;;;;;;4359700;32;20460;-45
2021/03/03 08:13:39;;;;;;;2.58;0.80;;;13.60;38.60;;;;;;4359808;32;20144;-44
2021/03/03 08:16:06;;;;;;;1.77;0.80;;;13.60;38.30;;;;;;4359974;32;20055;-44
2021/03/03 08:18:37;;;;;;;3.58;0.70;;;13.60;37.00;;;;;;4358740;32;20081;-56
2021/03/03 08:21:09;;;;;;;2.90;0.70;;;13.50;37.50;;;;;;4358382;32;20171;-47
2021/03/03 08:23:37;;;;;;;7.37;0.95;;;13.50;37.30;;;;;;4359679;32;20063;-45
2021/03/03 08:26:16;;;;;;;2.97;0.60;;;13.50;37.60;;;;;;4363243;32;20072;-46
2021/03/03 08:28:47;;;;;;;1.55;0.50;;;13.50;36.50;;;;;;4374720;32;20527;-45
2021/03/03 08:31:17;;;;;;;4.03;1.08;;;13.50;36.40;;;;;;4373701;32;20080;-45
2021/03/03 08:33:50;;;;;;;8.10;0.90;;;13.40;36.30;;;;;;4374391;32;20059;-44
2021/03/03 08:36:29;;;;;;;3.05;0.55;;;13.30;36.70;;;;;;4374226;32;20066;-47
2021/03/03 08:38:56;;;;;;;2.97;0.70;;;13.20;36.50;;;;;;4374815;32;20067;-45
2021/03/03 08:41:32;;;;;;;13.30;0.98;;;13.20;36.20;;;;;;4374288;32;20102;-46
2021/03/03 08:44:10;;;;;;;4.85;0.50;;;13.00;36.10;;;;;;4373354;32;20057;-45
2021/03/03 08:46:39;;;;;;;0.80;0.50;;;12.90;36.70;;;;;;4372923;32;20474;-46
2021/03/03 08:49:05;;;;;;;11.45;1.00;;;12.90;36.30;;;;;;4374034;32;20481;-45
2021/03/03 08:51:35;;;;;;;8.77;0.80;;;12.90;36.70;;;;;;4374494;32;20092;-45
2021/03/03 08:54:05;;;;;;;3.72;0.57;;;12.90;36.50;;;;;;4374251;32;20077;-45
2021/03/03 08:56:37;;;;;;;12.70;1.73;;;13.00;36.50;;;;;;4372891;32;20081;-46
2021/03/03 08:59:28;;;;;;;4.72;1.05;;;13.10;36.20;;;;;;4374231;32;20149;-46
2021/03/03 09:02:17;;;;;;;3.50;0.50;;;13.20;36.30;;;;;;4374071;32;20205;-46
2021/03/03 09:04:56;;;;;;;1.25;0.77;;;13.20;36.00;;;;;;4374628;32;20058;-44
2021/03/03 09:07:31;;;;;;;2.55;0.77;;;13.10;35.80;;;;;;4372212;32;20110;-43
2021/03/03 09:10:07;;;;;;;3.87;0.73;;;13.00;35.70;;;;;;4372370;32;20062;-43
2021/03/03 09:12:39;;;;;;;1.33;0.73;;;12.90;36.30;;;;;;4373980;32;20065;-43
2021/03/03 09:15:08;;;;;;;1.35;1.15;;;12.90;36.00;;;;;;4372973;32;20478;-43
2021/03/03 09:17:36;;;;;;;7.35;0.98;;;12.80;35.50;;;;;;4360433;32;20060;-44
2021/03/03 09:20:15;;;;;;;3.50;0.90;;;12.60;35.60;;;;;;4372558;32;20074;-44
2021/03/03 09:22:46;;;;;;;1.50;0.40;;;12.60;35.90;;;;;;4372572;32;20108;-44
2021/03/03 09:25:20;;;;;;;1.80;0.57;;;12.50;36.10;;;;;;4374057;32;20145;-45
2021/03/03 09:27:53;;;;;;;2.20;0.62;;;12.50;35.90;;;;;;4359234;32;20062;-44
2021/03/03 09:30:21;;;;;;;4.65;2.00;;;12.50;35.80;;;;;;4358427;32;20059;-43
2021/03/03 09:32:48;;;;;;;6.57;0.70;;;12.50;35.60;;;;;;4357407;32;20063;-45
2021/03/03 09:35:17;;;;;;;3.53;0.60;;;12.50;35.60;;;;;;4358711;32;20074;-44
2021/03/03 09:37:45;;;;;;;1.10;0.47;;;12.50;35.80;;;;;;4357069;32;20455;-45
2021/03/03 09:40:14;;;;;;;2.35;0.47;;;12.60;35.20;;;;;;4357013;32;20181;-45
2021/03/03 09:42:46;;;;;;;2.72;0.60;;;12.60;35.20;;;;;;4358510;32;20158;-43
2021/03/03 09:45:17;;;;;;;6.65;1.00;;;12.60;34.20;;;;;;4358274;32;20086;-44
2021/03/03 09:47:44;;;;;;;1.23;0.55;;;12.50;34.20;;;;;;4358530;32;20498;-43
2021/03/03 09:50:12;;;;;;;4.47;0.90;;;12.50;34.60;;;;;;4356879;32;20069;-44
2021/03/03 09:52:44;;;;;;;1.98;0.60;;;12.50;35.00;;;;;;4358791;32;20093;-45
2021/03/03 09:55:15;;;;;;;11.75;1.02;;;12.60;34.50;;;;;;4358769;32;20070;-45
2021/03/03 09:57:55;;;;;;;7.72;0.80;;;12.70;34.30;;;;;;4344880;32;20094;-44
2021/03/03 10:00:27;;;;;;;0.82;0.40;;;12.80;34.40;;;;;;4345359;32;20147;-44
2021/03/03 10:03:02;;;;;;;0.22;0.15;;;12.90;33.80;;;;;;4357203;32;20063;-43
2021/03/03 10:05:31;;;;;;;2.15;0.50;;;13.00;33.90;;;;;;4331860;32;20097;-44
2021/03/03 10:08:09;;;;;;;2.30;0.50;;;12.90;32.80;;;;;;4358555;32;20527;-42
2021/03/03 10:10:37;;;;;;;2.35;0.30;;;12.80;31.90;;;;;;4358522;32;20159;-44
2021/03/03 10:13:05;;;;;;;2.03;0.50;;;12.80;31.90;;;;;;4344267;32;20248;-44
2021/03/03 10:15:38;;;;;;;5.75;0.45;;;12.70;32.20;;;;;;4343981;32;20531;-44
2021/03/03 10:18:09;;;;;;;4.72;0.37;;;12.70;32.60;;;;;;4356896;32;20097;-45
2021/03/03 10:20:39;;;;;;;3.42;1.23;;;12.70;32.40;;;;;;4358457;32;20082;-45
2021/03/03 10:23:11;;;;;;;0.30;0.10;;;12.80;32.40;;;;;;4358182;32;20080;-44
2021/03/03 10:25:52;;;;;;;3.70;0.95;;;12.80;32.20;;;;;;4359131;32;20070;-43
2021/03/03 10:28:21;;;;;;;4.87;0.77;;;12.70;31.30;;;;;;4372965;32;20070;-43
2021/03/03 10:30:49;;;;;;;1.12;0.20;;;12.60;31.80;;;;;;4372797;32;20171;-43
2021/03/03 10:33:26;;;;;;;3.22;0.62;;;12.60;31.80;;;;;;4372878;32;20088;-43
2021/03/03 10:35:53;;;;;;;1.42;0.30;;;12.50;31.30;;;;;;4371218;32;20077;-43
2021/03/03 10:38:21;;;;;;;3.65;0.30;;;12.30;31.10;;;;;;4373277;32;20139;-44
2021/03/03 10:40:49;;;;;;;0.32;0.20;;;12.20;31.50;;;;;;4373070;32;20156;-44
2021/03/03 10:43:21;;;;;;;2.20;0.40;;;12.00;32.50;;;;;;4358878;32;20061;-44
2021/03/03 10:46:06;;;;;;;1.10;0.20;;;11.80;32.90;;;;;;4373020;32;20550;-43
2021/03/03 10:48:33;;;;;;;4.65;0.40;;;11.70;33.50;;;;;;4371068;32;20065;-44
2021/03/03 10:51:01;;;;;;;13.43;1.40;;;11.50;33.10;;;;;;4372396;32;20525;-44
2021/03/03 10:53:59;;;;;;;0.10;0.10;;;11.40;33.90;;;;;;4372441;32;20089;-43
2021/03/03 10:56:26;;;;;;;0.10;0.10;;;11.20;33.80;;;;;;4371775;32;20062;-45
2021/03/03 10:58:54;;;;;;;0.10;0.10;;;10.90;34.00;;;;;;4374377;32;20066;-44
2021/03/03 11:01:22;;;;;;;0.45;0.20;;;10.80;34.40;;;;;;4374302;32;20074;-44
2021/03/03 11:03:57;;;;;;;0.47;0.20;;;10.60;34.30;;;;;;4374287;32;20081;-43
2021/03/03 11:06:30;;;;;;;5.62;0.40;;;10.50;34.50;;;;;;4375918;32;20517;-44
2021/03/03 11:08:57;;;;;;;3.25;0.30;;;10.50;34.80;;;;;;4374344;32;20137;-43
2021/03/03 11:11:23;;;;;;;0.70;0.30;;;10.60;34.80;;;;;;4374374;32;20620;-43
2021/03/03 11:13:50;;;;;;;3.22;0.30;;;10.60;34.70;;;;;;4374313;32;20484;-43
2021/03/03 11:16:16;;;;;;;7.27;0.70;;;10.70;34.40;;;;;;4375798;32;20082;-42
2021/03/03 11:18:43;;;;;;;5.05;0.60;;;10.90;34.80;;;;;;4376152;32;20058;-44
2021/03/03 11:21:09;;;;;;;0.68;0.30;;;11.10;34.40;;;;;;4376099;32;20113;-44
2021/03/03 11:23:36;;;;;;;0.63;0.20;;;11.20;33.50;;;;;;4375410;32;20078;-42
2021/03/03 11:26:02;;;;;;;8.52;0.88;;;11.30;33.70;;;;;;4375654;32;20094;-42
2021/03/03 11:28:29;;;;;;;4.95;0.40;;;11.30;32.80;;;;;;4373803;32;20178;-43
2021/03/03 11:30:55;;;;;;;1.60;0.25;;;11.30;32.60;;;;;;4361718;32;20130;-43
2021/03/03 11:33:25;;;;;;;1.23;0.35;;;11.40;32.80;;;;;;4374380;32;20137;-42
2021/03/03 11:35:51;;;;;;;1.12;0.20;;;11.50;33.00;;;;;;4374120;32;20070;-43
2021/03/03 11:38:18;;;;;;;6.93;0.60;;;11.50;32.40;;;;;;4373987;32;20553;-44
2021/03/03 11:40:44;;;;;;;1.77;0.30;;;11.50;32.70;;;;;;4373756;32;20080;-43
2021/03/03 11:43:11;;;;;;;2.95;0.30;;;11.50;32.20;;;;;;4375962;32;20539;-45
2021/03/03 11:45:37;;;;;;;7.47;0.77;;;11.40;32.30;;;;;;4375493;32;20065;-42
2021/03/03 11:48:04;;;;;;;6.25;1.00;;;11.30;32.40;;;;;;4374009;32;20066;-45
2021/03/03 11:50:30;;;;;;;6.10;0.40;;;11.30;32.90;;;;;;4375428;32;20084;-44
2021/03/03 11:52:57;;;;;;;7.12;0.60;;;11.20;33.00;;;;;;4375656;32;20066;-44
2021/03/03 11:55:23;;;;;;;2.35;0.55;;;11.20;33.00;;;;;;4375584;32;20065;-42
2021/03/03 11:57:50;;;;;;;10.68;1.00;;;11.10;33.30;;;;;;4375520;32;20097;-45
2021/03/03 12:00:17;;;;;;;7.72;1.10;;;11.20;33.50;;;;;;4375435;32;20070;-43
2021/03/03 12:02:43;;;;;;;0.95;0.40;;;11.30;33.50;;;;;;4375442;32;20177;-44
2021/03/03 12:05:11;;;;;;;0.75;0.15;;;11.40;33.30;;;;;;4373964;32;20070;-44
2021/03/03 12:07:37;;;;;;;11.93;0.52;;;11.40;32.80;;;;;;4375276;32;20086;-43
2021/03/03 12:10:05;;;;;;;4.95;0.28;;;11.30;32.60;;;;;;4374656;32;20526;-44
2021/03/03 12:12:32;;;;;;;0.37;0.20;;;11.20;32.80;;;;;;4373397;32;20093;-44
2021/03/03 12:14:58;;;;;;;0.43;0.30;;;10.90;33.00;;;;;;4373360;32;20146;-44
2021/03/03 12:17:27;;;;;;;0.85;0.35;;;10.70;33.30;;;;;;4374895;32;20226;-43
2021/03/03 12:19:54;;;;;;;3.50;0.40;;;10.50;33.80;;;;;;4375226;32;20176;-44
2021/03/03 12:22:21;;;;;;;2.40;0.20;;;10.30;34.30;;;;;;4375298;32;20086;-45
2021/03/03 12:24:47;;;;;;;0.37;0.20;;;9.90;35.00;;;;;;4375035;32;20501;-44
2021/03/03 12:27:14;;;;;;;5.25;0.20;;;9.70;35.70;;;;;;4373874;32;20063;-44
2021/03/03 12:29:40;;;;;;;1.30;0.50;;;9.40;36.40;;;;;;4375076;32;20084;-44
2021/03/03 12:32:07;;;;;;;1.20;0.30;;;9.10;38.10;;;;;;4374784;32;20712;-44
2021/03/03 12:34:33;;;;;;;0.30;0.20;;;8.70;39.10;;;;;;4374506;32;20062;-45
2021/03/03 12:37:00;;;;;;;1.07;0.30;;;8.30;40.30;;;;;;4374419;32;20059;-45
2021/03/03 12:39:27;;;;;;;0.30;0.20;;;7.90;41.30;;;;;;4374868;32;20077;-44
2021/03/03 12:41:54;;;;;;;2.13;0.50;;;7.70;42.50;;;;;;4373053;32;20521;-44
2021/03/03 12:44:21;;;;;;;6.53;0.80;;;7.40;43.00;;;;;;4374670;32;20086;-44
2021/03/03 12:46:47;;;;;;;0.47;0.20;;;7.30;43.50;;;;;;4374762;32;20059;-43
2021/03/03 12:49:14;;;;;;;1.17;0.50;;;7.20;43.60;;;;;;4375058;32;20153;-43
2021/03/03 12:51:40;;;;;;;3.37;0.90;;;7.10;43.80;;;;;;4374186;32;20077;-43
2021/03/03 12:54:07;;;;;;;15.33;0.73;;;7.10;44.10;;;;;;4374058;32;20147;-43
2021/03/03 12:56:34;;;;;;;1.40;0.70;;;7.00;44.20;;;;;;4359631;32;20171;-44
2021/03/03 12:59:00;;;;;;;30.57;2.17;;;6.90;44.50;;;;;;4374136;32;20143;-44
2021/03/03 13:01:26;;;;;;;6.67;0.60;;;6.90;44.70;;;;;;4373030;32;20149;-46
2021/03/03 13:03:53;;;;;;;1.57;0.40;;;6.90;44.80;;;;;;4374348;32;20100;-44
2021/03/03 13:06:21;;;;;;;1.20;0.20;;;7.00;44.90;;;;;;4372937;32;20062;-45